Time;durP1;ratioP1;P1;durP2;ratioP2;P2;SDS_P1;SDS_P2;PMS_P1;PMS_P2;Temp;Humidity;BMP_temperature;BMP_pressure;BME280_temperature;BME280_humidity;BME280_pressure;Samples;Min_cycle;Max_cycle;Signal;HPM_P1;HPM_P2
2022/06/13 00:01:49;;;;;;;12.60;11.70;;;;;;;13.78;100.00;92840.19;5009338;28;20303;-78
2022/06/13 00:04:15;;;;;;;11.93;11.17;;;;;;;13.76;100.00;92837.06;5008041;28;20183;-79
2022/06/13 00:06:40;;;;;;;12.27;11.57;;;;;;;13.78;100.00;92834.16;5005555;28;20234;-78
2022/06/13 00:09:06;;;;;;;11.20;10.50;;;;;;;13.73;100.00;92824.53;5008234;28;20251;-78
2022/06/13 00:11:32;;;;;;;11.27;10.33;;;;;;;13.83;100.00;92826.97;5008275;28;20231;-78
2022/06/13 00:13:58;;;;;;;12.10;11.20;;;;;;;13.91;100.00;92823.69;5008787;28;20235;-78
2022/06/13 00:16:24;;;;;;;12.40;11.60;;;;;;;13.78;100.00;92813.16;5008410;28;20235;-79
2022/06/13 00:18:49;;;;;;;12.17;11.30;;;;;;;14.00;100.00;92827.16;5008995;28;20199;-79
2022/06/13 00:21:17;;;;;;;12.23;11.43;;;;;;;13.79;100.00;92825.25;5008840;28;20254;-78
2022/06/13 00:23:42;;;;;;;11.97;11.17;;;;;;;13.72;100.00;92817.75;5007519;28;20280;-79
2022/06/13 00:26:08;;;;;;;11.87;11.13;;;;;;;13.86;100.00;92842.16;5008661;28;20231;-78
2022/06/13 00:28:33;;;;;;;12.33;11.23;;;;;;;13.77;100.00;92846.53;5008568;28;20223;-78
2022/06/13 00:30:59;;;;;;;11.73;10.60;;;;;;;13.75;100.00;92848.66;5008258;28;20219;-79
2022/06/13 00:33:25;;;;;;;11.83;11.13;;;;;;;13.78;100.00;92855.16;5011709;28;20218;-79
2022/06/13 00:35:51;;;;;;;12.13;11.43;;;;;;;13.66;100.00;92832.03;5012110;28;20230;-79
2022/06/13 00:38:16;;;;;;;11.87;11.13;;;;;;;13.72;100.00;92838.75;5011613;28;20242;-78
2022/06/13 00:40:42;;;;;;;12.33;11.53;;;;;;;13.82;100.00;92862.16;5012341;28;20235;-78
2022/06/13 00:43:08;;;;;;;11.77;11.07;;;;;;;13.85;100.00;92863.44;5011701;28;20198;-78
2022/06/13 00:45:36;;;;;;;11.43;10.77;;;;;;;13.76;100.00;92858.06;5012311;28;20246;-79
2022/06/13 00:48:03;;;;;;;12.23;11.53;;;;;;;13.81;100.00;92857.97;5010089;28;20193;-78
2022/06/13 00:50:55;;;;;;;11.90;10.77;;;;;;;13.80;100.00;92848.56;5011257;28;20184;-78
2022/06/13 00:53:24;;;;;;;11.37;10.67;;;;;;;13.86;100.00;92854.47;5011361;28;20251;-79
2022/06/13 00:56:05;;;;;;;12.03;11.13;;;;;;;13.74;100.00;92831.34;5010701;28;20227;-79
2022/06/13 00:58:35;;;;;;;12.00;11.00;;;;;;;13.81;100.00;92818.63;5012150;28;20183;-78
2022/06/13 01:01:03;;;;;;;12.10;11.30;;;;;;;13.85;100.00;92845.81;5011609;28;20287;-79
2022/06/13 01:03:28;;;;;;;11.17;10.37;;;;;;;13.66;100.00;92826.00;5012205;28;20199;-78
2022/06/13 01:05:59;;;;;;;11.03;10.33;;;;;;;13.70;100.00;92845.34;5011968;28;20481;-79
2022/06/13 01:08:27;;;;;;;12.40;10.73;;;;;;;13.79;100.00;92849.63;5010828;28;20237;-79
2022/06/13 01:11:16;;;;;;;12.27;11.37;;;;;;;13.75;100.00;92840.78;5011841;28;20258;-78
2022/06/13 01:14:27;;;;;;;11.37;10.57;;;;;;;13.70;100.00;92838.25;5010484;28;20203;-79
2022/06/13 01:17:11;;;;;;;12.47;11.57;;;;;;;13.77;100.00;92832.63;4992544;28;20287;-79
2022/06/13 01:19:45;;;;;;;12.37;11.57;;;;;;;13.81;100.00;92831.75;5011276;28;20192;-79
2022/06/13 01:22:25;;;;;;;10.27;9.67;;;;;;;13.77;100.00;92837.88;5010636;28;20231;-79
2022/06/13 01:24:56;;;;;;;11.83;11.13;;;;;;;13.85;100.00;92827.44;5011654;28;20183;-79
2022/06/13 01:27:28;;;;;;;11.33;10.23;;;;;;;13.91;100.00;92833.38;5011671;28;20238;-79
2022/06/13 01:30:09;;;;;;;11.27;10.57;;;;;;;13.41;100.00;92774.81;5010873;28;20211;-79
2022/06/13 01:32:53;;;;;;;11.20;10.50;;;;;;;13.82;100.00;92835.91;5011118;28;20222;-79
2022/06/13 01:35:18;;;;;;;11.60;10.70;;;;;;;13.70;100.00;92826.97;5010630;28;20191;-79
2022/06/13 01:38:05;;;;;;;12.60;11.43;;;;;;;13.68;100.00;92829.88;5011329;28;20210;-79
2022/06/13 01:40:38;;;;;;;12.17;11.37;;;;;;;13.60;100.00;92830.59;5011378;28;20195;-79
2022/06/13 01:43:07;;;;;;;12.43;11.53;;;;;;;13.64;100.00;92831.53;5011178;28;20171;-79
2022/06/13 01:46:04;;;;;;;12.00;11.20;;;;;;;13.74;100.00;92831.34;5010875;28;20191;-79
2022/06/13 01:48:52;;;;;;;11.87;11.17;;;;;;;13.77;100.00;92835.25;4980663;28;20223;-79
2022/06/13 01:51:41;;;;;;;12.30;11.50;;;;;;;13.78;100.00;92839.41;5010114;28;20240;-79
2022/06/13 01:54:46;;;;;;;12.60;11.70;;;;;;;13.58;100.00;92811.72;5010796;28;20191;-79
2022/06/13 01:57:36;;;;;;;11.67;10.97;;;;;;;13.65;100.00;92840.97;5009974;28;20279;-79
2022/06/13 02:00:11;;;;;;;12.27;11.27;;;;;;;13.61;100.00;92831.34;5011402;28;20191;-79
2022/06/13 02:03:02;;;;;;;12.80;12.00;;;;;;;13.77;100.00;92848.34;5010239;28;20226;-79
2022/06/13 02:05:43;;;;;;;11.40;10.70;;;;;;;13.56;100.00;92824.34;5002404;28;20286;-79
2022/06/13 02:08:15;;;;;;;12.10;11.40;;;;;;;13.68;100.00;92842.25;5009251;28;20247;-79
2022/06/13 02:10:53;;;;;;;11.23;10.53;;;;;;;13.60;100.00;92829.78;5009918;28;20254;-79
2022/06/13 02:13:33;;;;;;;11.87;11.17;;;;;;;13.61;100.00;92832.13;5009389;28;20221;-79
2022/06/13 02:16:06;;;;;;;12.47;11.27;;;;;;;13.57;100.00;92839.00;5010347;28;20243;-78
2022/06/13 02:18:35;;;;;;;12.30;11.50;;;;;;;13.63;100.00;92851.00;5009565;28;20195;-79
2022/06/13 02:21:12;;;;;;;11.77;11.03;;;;;;;13.57;100.00;92844.25;5008155;28;20227;-79
2022/06/13 02:23:47;;;;;;;12.33;11.53;;;;;;;13.60;100.00;92843.69;5009824;28;20230;-79
2022/06/13 02:26:21;;;;;;;11.60;10.90;;;;;;;13.54;100.00;92844.06;5010094;28;20261;-79
2022/06/13 02:28:56;;;;;;;11.90;11.10;;;;;;;13.56;100.00;92855.03;5009801;28;20240;-79
2022/06/13 02:31:40;;;;;;;11.27;10.57;;;;;;;13.47;100.00;92843.66;5009586;28;20226;-79
2022/06/13 02:34:18;;;;;;;12.60;11.80;;;;;;;13.48;100.00;92853.09;5009684;28;20182;-79
2022/06/13 02:36:47;;;;;;;12.20;11.53;;;;;;;13.53;100.00;92859.03;5009509;28;21286;-79
2022/06/13 02:39:37;;;;;;;12.43;11.50;;;;;;;13.53;100.00;92845.91;5009785;28;20223;-79
2022/06/13 02:42:13;;;;;;;12.73;11.40;;;;;;;13.55;100.00;92838.53;5023309;28;21172;-79
2022/06/13 02:44:48;;;;;;;12.23;11.13;;;;;;;13.57;100.00;92830.38;5029466;28;20178;-79
2022/06/13 02:47:22;;;;;;;12.60;11.80;;;;;;;13.63;100.00;92843.13;5028660;28;20242;-78
2022/06/13 02:50:03;;;;;;;12.57;11.77;;;;;;;13.58;100.00;92845.81;5027813;28;20210;-79
2022/06/13 02:52:46;;;;;;;11.43;10.77;;;;;;;13.56;100.00;92853.19;5029132;28;20218;-79
2022/06/13 02:55:13;;;;;;;12.80;11.70;;;;;;;13.42;100.00;92839.28;5029717;28;20190;-79
2022/06/13 02:58:10;;;;;;;12.67;11.87;;;;;;;13.41;100.00;92824.63;5029270;28;20215;-79
2022/06/13 03:01:12;;;;;;;11.63;11.00;;;;;;;13.74;100.00;92859.44;5026797;28;20286;-79
2022/06/13 03:04:00;;;;;;;12.40;11.50;;;;;;;13.79;100.00;92857.50;5028560;28;20204;-79
2022/06/13 03:06:38;;;;;;;11.63;10.83;;;;;;;14.25;100.00;92852.94;5027989;28;20222;-79
2022/06/13 03:09:09;;;;;;;12.13;11.37;;;;;;;15.00;100.00;92860.19;5027777;28;20257;-79
2022/06/13 03:11:53;;;;;;;11.87;11.07;;;;;;;15.11;100.00;92872.81;5028812;28;20222;-79
2022/06/13 03:14:25;;;;;;;11.17;10.57;;;;;;;15.56;100.00;92877.00;5028651;28;20175;-78
2022/06/13 03:17:02;;;;;;;11.40;10.70;;;;;;;16.77;98.49;92878.94;5027984;28;20226;-79
2022/06/13 03:19:31;;;;;;;11.33;10.70;;;;;;;17.55;92.04;92883.88;5027777;28;20184;-79
2022/06/13 03:22:18;;;;;;;11.07;10.07;;;;;;;18.30;86.57;92891.09;5027745;28;21054;-79
2022/06/13 03:24:47;;;;;;;10.83;10.23;;;;;;;18.34;86.92;92886.69;5028661;28;20210;-79
2022/06/13 03:27:21;;;;;;;10.53;9.87;;;;;;;18.31;88.17;92895.28;5029051;28;20245;-79
2022/06/13 03:29:52;;;;;;;10.87;10.27;;;;;;;18.37;87.23;92896.63;5029346;28;20210;-79
2022/06/13 03:32:24;;;;;;;10.23;9.73;;;;;;;18.11;88.20;92902.06;5016403;28;20226;-79
2022/06/13 03:34:56;;;;;;;10.73;9.87;;;;;;;17.67;89.90;92901.69;5009849;28;20176;-79
2022/06/13 03:37:31;;;;;;;10.47;9.83;;;;;;;17.10;92.37;92896.66;5025963;28;20245;-79
2022/06/13 03:40:06;;;;;;;10.20;9.70;;;;;;;18.02;89.68;92884.69;5026363;28;20182;-79
2022/06/13 03:42:46;;;;;;;10.03;9.43;;;;;;;18.48;85.01;92892.56;5027113;28;20234;-79
2022/06/13 03:45:30;;;;;;;10.03;9.40;;;;;;;18.09;87.41;92893.66;5028374;28;20186;-79
2022/06/13 03:48:06;;;;;;;10.20;9.70;;;;;;;18.54;85.53;92894.72;5028732;28;20207;-79
2022/06/13 03:50:46;;;;;;;10.23;9.33;;;;;;;18.77;83.55;92903.16;5029149;28;20192;-78
2022/06/13 03:53:21;;;;;;;10.83;10.13;;;;;;;19.24;82.10;92904.50;5027837;28;20201;-79
2022/06/13 03:55:56;;;;;;;10.10;9.60;;;;;;;19.54;80.85;92903.34;5028036;28;20225;-80
2022/06/13 03:58:48;;;;;;;10.47;9.87;;;;;;;20.12;78.81;92912.88;5028250;28;20183;-79
2022/06/13 04:01:26;;;;;;;10.60;10.00;;;;;;;20.40;77.80;92922.56;5020074;28;20224;-79
2022/06/13 04:03:54;;;;;;;10.63;10.03;;;;;;;19.93;79.71;92916.06;5028394;28;20200;-79
2022/06/13 04:06:33;;;;;;;10.00;9.50;;;;;;;19.45;82.28;92915.13;5027109;28;20262;-79
2022/06/13 04:09:01;;;;;;;10.57;9.97;;;;;;;19.98;81.41;92902.59;5030925;28;20812;-79
2022/06/13 04:12:04;;;;;;;10.17;9.50;;;;;;;20.69;77.82;92911.72;5031726;28;20253;-79
2022/06/13 04:14:29;;;;;;;11.10;10.40;;;;;;;19.22;83.05;92917.31;5031865;28;20194;-79
2022/06/13 04:17:05;;;;;;;11.50;10.80;;;;;;;18.92;85.17;92876.91;5032185;28;20232;-79
2022/06/13 04:19:49;;;;;;;11.00;10.30;;;;;;;19.55;84.46;92915.47;5031807;28;20227;-79
2022/06/13 04:22:57;;;;;;;11.07;10.40;;;;;;;19.17;85.68;92909.56;5031941;28;20239;-79
2022/06/13 04:25:46;;;;;;;11.27;10.57;;;;;;;19.18;87.93;92906.59;5031846;28;20262;-79
2022/06/13 04:28:28;;;;;;;10.13;9.53;;;;;;;20.33;82.07;92903.75;5031747;28;20207;-78
2022/06/13 04:30:56;;;;;;;11.53;10.83;;;;;;;19.67;83.67;92912.09;5031944;28;20240;-78
2022/06/13 04:33:39;;;;;;;10.70;10.10;;;;;;;21.54;77.50;92908.91;5032305;28;20245;-78
2022/06/13 04:36:07;;;;;;;10.43;9.73;;;;;;;22.57;71.38;92918.47;5031660;28;20240;-78
2022/06/13 04:38:34;;;;;;;10.73;10.10;;;;;;;21.52;75.06;92909.25;5030141;28;20198;-78
2022/06/13 04:41:04;;;;;;;10.80;10.20;;;;;;;20.85;77.64;92892.47;5031694;28;20225;-78
2022/06/13 04:43:35;;;;;;;11.13;10.40;;;;;;;20.52;80.65;92898.69;5021635;28;20187;-78
2022/06/13 04:46:08;;;;;;;11.73;10.83;;;;;;;20.27;81.30;92904.31;5031516;28;20912;-78
2022/06/13 04:48:36;;;;;;;11.60;10.80;;;;;;;19.94;83.46;92909.63;5031036;28;20217;-76
2022/06/13 04:51:07;;;;;;;12.10;11.30;;;;;;;19.82;84.83;92911.47;5030889;28;20225;-78
2022/06/13 04:54:01;;;;;;;10.80;10.10;;;;;;;19.45;88.35;92904.53;5030790;28;20189;-79
2022/06/13 04:56:27;;;;;;;11.00;10.27;;;;;;;19.65;87.14;92903.72;5031168;28;20296;-78
2022/06/13 04:58:54;;;;;;;11.77;10.97;;;;;;;19.45;89.06;92901.88;5029992;28;20217;-78
2022/06/13 05:01:43;;;;;;;11.90;11.10;;;;;;;19.58;89.34;92898.94;5030617;28;20221;-78
2022/06/13 05:04:13;;;;;;;11.87;10.97;;;;;;;20.46;84.47;92899.25;5031038;28;20190;-78
2022/06/13 05:06:43;;;;;;;11.70;10.90;;;;;;;20.73;82.33;92881.88;5031359;28;20244;-78
2022/06/13 05:09:21;;;;;;;11.50;10.70;;;;;;;21.16;80.55;92913.88;5029223;28;20317;-78
2022/06/13 05:12:08;;;;;;;12.07;11.25;;;;;;;25.55;65.55;92918.72;5030112;28;20226;-79
2022/06/13 05:14:59;;;;;;;9.15;8.65;;;;;;;25.32;55.93;92895.84;5029931;28;20200;-78
2022/06/13 05:17:53;;;;;;;8.57;8.15;;;;;;;25.68;55.54;92916.59;5029804;28;20226;-78
2022/06/13 05:20:51;;;;;;;8.35;7.95;;;;;;;27.11;50.33;92911.09;5031156;28;20194;-78
2022/06/13 05:23:51;;;;;;;9.60;9.02;;;;;;;25.48;55.18;92915.94;5029949;28;20194;-78
2022/06/13 05:26:17;;;;;;;9.38;8.88;;;;;;;24.06;60.16;92915.97;5030482;28;20248;-78
2022/06/13 05:28:43;;;;;;;8.95;8.45;;;;;;;23.20;61.75;92907.38;5030676;28;20202;-78
2022/06/13 05:31:19;;;;;;;9.10;8.60;;;;;;;23.50;60.68;92892.38;5031147;28;20220;-78
2022/06/13 05:33:46;;;;;;;8.90;8.40;;;;;;;26.03;55.32;92917.00;5026995;28;20205;-78
2022/06/13 05:36:16;;;;;;;9.32;8.82;;;;;;;30.32;44.43;92930.66;5030731;28;20234;-78
2022/06/13 05:38:46;;;;;;;8.40;7.90;;;;;;;32.81;37.29;92918.56;5031117;28;20187;-78
2022/06/13 05:41:11;;;;;;;8.43;7.97;;;;;;;33.19;37.25;92925.31;5029346;28;20299;-79
2022/06/13 05:43:37;;;;;;;7.78;7.38;;;;;;;35.39;33.40;92922.00;5030842;28;20186;-79
2022/06/13 05:46:07;;;;;;;8.40;7.85;;;;;;;36.24;31.31;92912.34;5030710;28;20241;-78
2022/06/13 05:48:33;;;;;;;7.60;7.18;;;;;;;36.56;30.66;92928.56;5030990;28;20298;-78
2022/06/13 05:50:58;;;;;;;7.75;7.25;;;;;;;37.77;28.77;92927.06;5029407;28;20253;-78
2022/06/13 05:53:26;;;;;;;8.90;8.23;;;;;;;37.10;30.06;92902.00;5030194;28;20191;-79
2022/06/13 05:55:56;;;;;;;8.45;7.93;;;;;;;36.61;31.90;92914.41;5030058;28;20253;-79
2022/06/13 05:58:23;;;;;;;8.75;7.90;;;;;;;35.60;33.12;92897.78;5030521;28;20278;-78
2022/06/13 06:00:55;;;;;;;9.15;8.23;;;;;;;36.55;30.92;92905.25;5028471;28;20227;-79
2022/06/13 06:03:20;;;;;;;8.68;8.07;;;;;;;36.83;30.04;92904.41;5030189;28;20197;-78
2022/06/13 06:05:46;;;;;;;9.02;8.43;;;;;;;36.91;30.05;92922.06;5030207;28;20278;-79
2022/06/13 06:08:24;;;;;;;8.68;7.97;;;;;;;37.46;29.30;92899.66;5030068;28;20229;-79
2022/06/13 06:10:53;;;;;;;9.23;8.45;;;;;;;37.05;29.33;92918.88;5028819;28;20233;-79
2022/06/13 06:13:19;;;;;;;9.52;8.82;;;;;;;37.13;30.18;92914.75;5027377;28;20182;-79
2022/06/13 06:15:46;;;;;;;8.68;8.07;;;;;;;38.15;28.28;92925.00;5030163;28;20248;-79
2022/06/13 06:18:12;;;;;;;9.80;9.00;;;;;;;36.36;30.53;92915.13;5030520;28;20190;-79
2022/06/13 06:20:37;;;;;;;9.23;8.43;;;;;;;36.16;31.22;92911.06;5030301;28;20253;-79
2022/06/13 06:23:03;;;;;;;8.40;7.68;;;;;;;35.30;31.12;92914.41;5028891;28;20195;-79
2022/06/13 06:25:30;;;;;;;9.65;8.75;;;;;;;35.50;31.62;92915.13;5029864;28;20214;-78
2022/06/13 06:27:55;;;;;;;8.80;8.20;;;;;;;36.17;30.70;92918.00;5029629;28;20179;-79
2022/06/13 06:30:21;;;;;;;8.10;7.60;;;;;;;36.43;30.18;92919.59;5028413;28;20197;-79
2022/06/13 06:32:46;;;;;;;8.75;8.15;;;;;;;35.83;31.97;92920.50;5029712;28;20229;-79
2022/06/13 06:35:13;;;;;;;8.40;7.90;;;;;;;36.52;29.62;92931.38;5030706;28;20222;-78
2022/06/13 06:37:39;;;;;;;8.95;8.35;;;;;;;35.70;31.06;92916.94;5029342;28;20232;-79
2022/06/13 06:40:06;;;;;;;9.07;8.43;;;;;;;35.68;32.46;92916.63;5030239;28;20205;-79
2022/06/13 06:42:31;;;;;;;8.82;8.23;;;;;;;34.82;33.47;92919.81;5028877;28;20211;-79
2022/06/13 06:44:57;;;;;;;8.38;7.72;;;;;;;36.24;30.73;92932.16;5029968;28;20221;-79
2022/06/13 06:47:22;;;;;;;7.80;7.20;;;;;;;35.60;31.55;92919.50;5028155;28;20305;-79
2022/06/13 06:49:47;;;;;;;8.50;7.80;;;;;;;34.67;32.54;92917.84;5012321;28;20222;-79
2022/06/13 06:52:13;;;;;;;9.45;8.35;;;;;;;31.57;39.78;92895.00;5029021;28;20253;-79
2022/06/13 07:00:06;;;;;;;9.48;8.77;;;;;;;24.73;57.24;92878.59;5029409;28;20224;-78
2022/06/13 07:02:33;;;;;;;9.93;9.32;;;;;;;24.65;55.90;92892.97;5027794;28;20233;-78
2022/06/13 07:05:01;;;;;;;9.15;8.65;;;;;;;24.41;56.01;92888.00;5029265;28;20191;-78
2022/06/13 07:07:27;;;;;;;10.50;9.57;;;;;;;23.99;57.53;92881.13;5029531;28;20222;-78
2022/06/13 07:09:53;;;;;;;9.95;9.30;;;;;;;23.60;58.85;92875.84;5028943;28;20230;-78
2022/06/13 07:12:18;;;;;;;9.57;8.90;;;;;;;22.97;62.56;92863.09;5028434;28;20244;-79
2022/06/13 07:14:44;;;;;;;9.05;8.55;;;;;;;23.33;58.45;92887.47;5028027;28;21243;-77
2022/06/13 07:17:10;;;;;;;9.30;8.80;;;;;;;23.38;58.53;92871.22;5029253;28;20240;-78
2022/06/13 07:19:36;;;;;;;9.25;8.75;;;;;;;23.05;58.71;92864.78;5027492;28;20220;-78
2022/06/13 07:22:04;;;;;;;9.30;8.75;;;;;;;23.25;59.55;92880.44;5028961;28;20222;-78
2022/06/13 07:24:33;;;;;;;9.80;9.20;;;;;;;22.56;64.08;92882.31;5028848;28;20268;-78
2022/06/13 07:27:00;;;;;;;9.43;8.63;;;;;;;21.23;63.98;92831.78;5028985;28;20229;-79
2022/06/13 07:29:25;;;;;;;10.60;9.90;;;;;;;22.41;64.76;92862.56;5028557;28;20223;-79
2022/06/13 07:32:04;;;;;;;10.18;9.52;;;;;;;22.90;61.06;92877.03;5028415;28;20252;-78
2022/06/13 07:34:32;;;;;;;10.73;9.88;;;;;;;22.63;65.25;92888.56;5029271;28;20999;-79
2022/06/13 07:37:00;;;;;;;10.88;10.18;;;;;;;22.55;63.52;92868.25;5028709;28;20303;-79
2022/06/13 07:39:26;;;;;;;9.95;9.27;;;;;;;21.70;62.28;92875.16;5027652;28;20188;-78
2022/06/13 07:41:52;;;;;;;10.50;9.80;;;;;;;21.91;64.35;92881.09;5030742;28;20259;-79
2022/06/13 07:44:25;;;;;;;11.05;10.20;;;;;;;22.41;64.23;92862.56;5032726;28;20186;-78
2022/06/13 07:46:51;;;;;;;11.63;10.43;;;;;;;22.48;63.67;92888.56;5032987;28;20212;-79
2022/06/13 07:49:18;;;;;;;11.98;10.73;;;;;;;21.68;65.66;92866.78;5033312;28;20243;-79
2022/06/13 07:51:44;;;;;;;11.10;10.38;;;;;;;22.95;64.17;92886.63;5031667;28;20223;-78
2022/06/13 07:54:10;;;;;;;10.65;9.95;;;;;;;22.38;68.00;92851.84;5032742;28;20166;-79
2022/06/13 07:56:36;;;;;;;11.07;10.43;;;;;;;22.47;68.81;92882.47;5032000;28;20237;-79
2022/06/13 07:59:02;;;;;;;11.90;11.10;;;;;;;22.38;69.65;92863.25;5031717;28;20187;-79
2022/06/13 08:01:29;;;;;;;10.88;10.18;;;;;;;22.41;64.95;92846.59;5033183;28;20212;-79
2022/06/13 08:03:55;;;;;;;11.35;10.65;;;;;;;21.93;67.07;92841.63;5031800;28;20198;-78
2022/06/13 08:06:22;;;;;;;11.27;10.57;;;;;;;22.81;65.48;92887.09;5030994;28;20220;-79
2022/06/13 08:08:47;;;;;;;11.60;10.80;;;;;;;22.76;65.26;92892.69;5031179;28;20243;-79
2022/06/13 08:11:20;;;;;;;11.10;10.40;;;;;;;22.07;69.69;92879.22;5032282;28;20228;-78
2022/06/13 08:13:45;;;;;;;11.95;11.05;;;;;;;23.07;66.11;92873.19;5032644;28;20189;-78
2022/06/13 08:16:11;;;;;;;10.75;10.02;;;;;;;23.29;65.78;92894.63;5032417;28;20232;-80
2022/06/13 08:18:37;;;;;;;10.90;10.10;;;;;;;23.96;63.38;92893.31;5031622;28;20197;-79
2022/06/13 08:21:03;;;;;;;14.02;11.00;;;;;;;24.33;60.04;92890.91;5031714;28;20237;-79
2022/06/13 08:23:29;;;;;;;10.80;10.10;;;;;;;23.54;62.85;92881.81;5032221;28;20193;-79
2022/06/13 08:25:54;;;;;;;11.93;10.95;;;;;;;22.91;61.69;92896.44;5031879;28;20257;-79
2022/06/13 08:28:20;;;;;;;10.80;10.10;;;;;;;22.53;64.61;92875.81;5032276;28;20221;-80
2022/06/13 08:30:56;;;;;;;11.35;10.60;;;;;;;22.71;62.27;92892.94;5032393;28;20229;-79
2022/06/13 08:33:22;;;;;;;10.63;9.90;;;;;;;23.14;62.15;92907.97;5031449;28;20201;-79
2022/06/13 08:35:48;;;;;;;10.70;10.00;;;;;;;23.92;57.99;92905.00;5022929;28;20235;-79
2022/06/13 08:38:14;;;;;;;11.32;10.43;;;;;;;23.33;58.11;92887.47;5030111;28;20217;-79
2022/06/13 08:40:39;;;;;;;10.63;9.95;;;;;;;23.36;60.26;92902.75;5031894;28;20298;-79
2022/06/13 08:43:38;;;;;;;11.75;10.77;;;;;;;24.60;55.90;92909.28;5031743;28;20223;-80
2022/06/13 08:46:33;;;;;;;10.90;10.10;;;;;;;23.78;57.90;92903.59;5031238;28;20243;-79
2022/06/13 08:49:31;;;;;;;10.40;9.70;;;;;;;24.41;55.25;92897.88;5004325;28;20231;-80
2022/06/13 08:52:06;;;;;;;13.30;10.90;;;;;;;23.85;59.01;92886.97;5030628;28;20229;-79
2022/06/13 08:54:34;;;;;;;11.32;10.32;;;;;;;24.17;57.34;92903.59;5029721;28;20208;-79
2022/06/13 08:57:04;;;;;;;11.88;10.82;;;;;;;23.83;58.40;92907.88;5031198;28;20276;-79
2022/06/13 08:59:36;;;;;;;11.18;10.38;;;;;;;23.55;59.97;92878.78;5031983;28;20192;-80
2022/06/13 09:02:08;;;;;;;12.23;11.43;;;;;;;23.32;61.14;92869.94;5030138;28;20233;-79
2022/06/13 09:04:39;;;;;;;11.48;10.65;;;;;;;24.14;58.25;92896.28;5031488;28;20186;-79
2022/06/13 09:07:15;;;;;;;11.75;10.93;;;;;;;23.88;58.25;92898.84;5030450;28;20233;-79
2022/06/13 09:10:11;;;;;;;11.10;10.40;;;;;;;23.43;61.30;92897.59;5031237;28;20213;-80
2022/06/13 09:13:01;;;;;;;12.05;11.15;;;;;;;22.97;61.62;92890.50;5029913;28;20250;-79
2022/06/13 09:15:51;;;;;;;12.13;11.20;;;;;;;23.91;59.36;92892.81;5030083;28;20509;-80
2022/06/13 09:18:24;;;;;;;11.80;11.00;;;;;;;24.44;58.08;92870.47;5031778;28;20188;-79
2022/06/13 09:20:57;;;;;;;13.75;11.75;;;;;;;24.60;56.82;92874.56;5030828;28;20232;-79
2022/06/13 09:23:54;;;;;;;11.20;10.35;;;;;;;24.70;56.78;92881.22;5029476;28;20224;-79
2022/06/13 09:26:31;;;;;;;11.13;10.32;;;;;;;24.35;53.87;92881.41;5031309;28;20229;-79
2022/06/13 09:29:25;;;;;;;11.07;10.38;;;;;;;23.88;57.17;92890.84;5029764;28;20218;-79
2022/06/13 09:31:59;;;;;;;11.48;10.75;;;;;;;23.64;58.42;92867.91;5029599;28;20288;-79
2022/06/13 09:34:34;;;;;;;11.15;10.35;;;;;;;23.64;60.64;92892.66;5030441;28;20181;-79
2022/06/13 09:36:59;;;;;;;10.80;10.10;;;;;;;23.78;58.65;92887.59;5023676;28;20230;-79
2022/06/13 09:39:25;;;;;;;11.57;10.68;;;;;;;23.39;58.83;92880.75;5029414;28;20272;-79
2022/06/13 09:42:09;;;;;;;10.85;10.07;;;;;;;23.46;59.14;92880.91;5030746;28;20226;-79
2022/06/13 09:44:43;;;;;;;11.95;11.02;;;;;;;23.81;60.24;92874.69;5029502;28;20213;-79
2022/06/13 09:47:21;;;;;;;11.55;10.77;;;;;;;23.95;58.39;92875.72;5030466;28;20225;-80
2022/06/13 09:49:56;;;;;;;11.73;10.93;;;;;;;23.93;59.05;92875.31;5029340;28;20249;-79
2022/06/13 09:52:39;;;;;;;11.65;10.82;;;;;;;23.96;59.61;92865.81;5029103;28;20228;-79
2022/06/13 09:55:23;;;;;;;12.15;11.25;;;;;;;24.10;60.31;92871.44;5030231;28;20213;-79
2022/06/13 09:58:07;;;;;;;10.77;10.07;;;;;;;23.89;59.42;92873.69;5029762;28;20271;-79
2022/06/13 10:01:00;;;;;;;11.82;11.02;;;;;;;23.52;60.62;92868.81;5029157;28;20198;-80
2022/06/13 10:03:41;;;;;;;11.25;10.18;;;;;;;23.92;58.30;92865.00;5029656;28;20632;-80
2022/06/13 10:06:31;;;;;;;11.43;10.48;;;;;;;24.00;57.06;92861.38;5029210;28;20236;-79
2022/06/13 10:09:08;;;;;;;11.02;10.13;;;;;;;23.87;57.24;92865.28;5028222;28;20309;-79
2022/06/13 10:11:51;;;;;;;11.68;10.68;;;;;;;23.94;55.09;92873.41;5030216;28;20263;-79
2022/06/13 10:14:49;;;;;;;11.02;10.32;;;;;;;24.29;57.39;92858.03;5026822;28;20276;-79
2022/06/13 10:17:46;;;;;;;11.60;10.70;;;;;;;24.36;57.34;92866.16;5027672;28;20254;-79
2022/06/13 10:20:39;;;;;;;11.32;10.55;;;;;;;24.44;57.42;92857.13;5029150;28;20190;-79
2022/06/13 10:23:30;;;;;;;10.88;10.07;;;;;;;24.28;57.13;92857.25;5029910;28;20224;-79
2022/06/13 10:26:03;;;;;;;11.60;10.73;;;;;;;23.99;58.07;92862.47;5005201;28;20249;-79
2022/06/13 10:28:50;;;;;;;11.48;10.38;;;;;;;24.08;60.10;92855.78;5029724;28;20216;-80
2022/06/13 10:31:30;;;;;;;11.23;10.27;;;;;;;24.27;59.61;92858.41;5029028;28;20227;-79
2022/06/13 10:34:17;;;;;;;11.98;11.18;;;;;;;24.92;57.87;92854.47;5030203;28;20188;-79
2022/06/13 10:36:56;;;;;;;12.15;11.15;;;;;;;24.76;56.28;92850.41;5029938;28;20271;-79
2022/06/13 10:39:24;;;;;;;11.23;10.35;;;;;;;24.46;56.72;92852.22;5029498;28;20219;-79
2022/06/13 10:41:57;;;;;;;11.63;10.82;;;;;;;23.58;59.93;92848.75;5029086;28;20964;-79
2022/06/13 10:44:23;;;;;;;11.43;10.18;;;;;;;23.84;57.94;92823.31;5030010;28;20210;-79
2022/06/13 10:46:53;;;;;;;11.27;10.38;;;;;;;23.98;57.37;92839.59;5029747;28;20214;-79
2022/06/13 10:49:31;;;;;;;11.93;11.07;;;;;;;24.26;55.29;92842.75;5028728;28;20256;-79
2022/06/13 10:52:02;;;;;;;11.82;10.85;;;;;;;24.43;62.04;92827.00;5026861;28;20228;-79
2022/06/13 10:54:38;;;;;;;12.82;11.82;;;;;;;24.82;55.60;92828.38;5027818;28;20181;-79
2022/06/13 10:57:07;;;;;;;10.60;9.80;;;;;;;25.25;55.69;92824.34;5028977;28;20259;-79
2022/06/13 10:59:35;;;;;;;11.30;10.50;;;;;;;25.02;53.94;92821.78;5028949;28;20262;-79
2022/06/13 11:02:05;;;;;;;12.48;11.45;;;;;;;24.33;55.92;92808.16;5027089;28;20766;-79
2022/06/13 11:04:32;;;;;;;10.73;9.95;;;;;;;24.16;56.78;92805.97;5029005;28;20208;-79
2022/06/13 11:07:19;;;;;;;12.18;11.05;;;;;;;23.82;58.70;92801.56;5028644;28;20285;-80
2022/06/13 11:09:57;;;;;;;11.55;10.55;;;;;;;24.36;56.25;92815.47;5029240;28;20223;-79
2022/06/13 11:12:29;;;;;;;11.35;10.52;;;;;;;24.38;57.22;92811.28;5028824;28;20236;-79
2022/06/13 11:23:18;;;;;;;11.95;10.02;;;;;;;24.37;56.80;92795.63;5028502;28;20208;-79
2022/06/13 11:25:46;;;;;;;12.18;11.30;;;;;;;24.24;55.86;92789.72;5028659;28;20228;-79
2022/06/13 11:28:14;;;;;;;11.57;10.77;;;;;;;24.14;55.75;92781.56;5028774;28;20210;-80
2022/06/13 11:30:51;;;;;;;12.88;11.70;;;;;;;24.30;57.14;92774.94;5028112;28;20244;-79
2022/06/13 11:33:36;;;;;;;12.68;11.65;;;;;;;24.35;56.23;92760.53;5027089;28;20184;-79
2022/06/13 11:36:14;;;;;;;11.45;10.65;;;;;;;24.68;54.27;92774.00;5029364;28;20232;-79
2022/06/13 11:38:55;;;;;;;12.93;11.88;;;;;;;24.23;54.42;92776.75;5026070;28;20196;-79
2022/06/13 11:41:32;;;;;;;12.07;11.20;;;;;;;24.71;56.21;92762.59;5028674;28;20233;-79
2022/06/13 11:44:17;;;;;;;12.68;11.68;;;;;;;24.05;55.92;92767.69;5028691;28;20192;-79
2022/06/13 11:46:45;;;;;;;11.70;10.55;;;;;;;24.33;55.49;92744.88;5028754;28;20230;-79
2022/06/13 11:49:14;;;;;;;13.57;11.73;;;;;;;24.82;56.81;92766.94;5028947;28;20212;-79
2022/06/13 11:51:51;;;;;;;12.30;11.15;;;;;;;25.56;53.26;92770.50;5028800;28;20226;-79
2022/06/13 11:54:29;;;;;;;12.38;11.18;;;;;;;24.60;57.47;92756.31;5023040;28;20213;-79
2022/06/13 11:57:51;;;;;;;12.80;11.80;;;;;;;24.56;57.12;92739.47;5027362;28;20800;-78
2022/06/13 12:00:18;;;;;;;11.68;10.73;;;;;;;24.77;54.78;92767.25;5022114;28;20245;-79
2022/06/13 12:02:49;;;;;;;13.25;12.02;;;;;;;24.46;54.25;92761.44;5028029;28;20910;-79
2022/06/13 12:05:31;;;;;;;12.18;11.18;;;;;;;24.24;55.36;92752.38;5028269;28;20200;-80
2022/06/13 12:08:00;;;;;;;12.02;11.10;;;;;;;24.44;53.39;92748.47;5026529;28;20292;-80